sensor_id;sensor_type;location;lat;lon;timestamp;pressure;altitude;pressure_sealevel;temperature;humidity
27294;BME280;14785;52.556;13.430;2023-12-14T00:01:13;-19636.44;;;7.94;100.00
27294;BME280;14785;52.556;13.430;2023-12-14T00:03:39;-19638.28;;;8.00;100.00
27294;BME280;14785;52.556;13.430;2023-12-14T00:06:10;-19635.53;;;7.91;100.00
27294;BME280;14785;52.556;13.430;2023-12-14T00:08:35;-19637.06;;;7.96;100.00
27294;BME280;14785;52.556;13.430;2023-12-14T00:11:08;-19628.09;;;7.66;100.00
27294;BME280;14785;52.556;13.430;2023-12-14T00:13:34;-19626.72;;;7.61;100.00
27294;BME280;14785;52.556;13.430;2023-12-14T00:16:02;-19626.72;;;7.61;100.00
27294;BME280;14785;52.556;13.430;2023-12-14T00:18:27;-19632.81;;;7.81;100.00
27294;BME280;14785;52.556;13.430;2023-12-14T00:20:53;-19635.25;;;7.90;100.00
27294;BME280;14785;52.556;13.430;2023-12-14T00:23:19;-19634.94;;;7.89;100.00
27294;BME280;14785;52.556;13.430;2023-12-14T00:25:45;-19637.66;;;7.98;100.00
27294;BME280;14785;52.556;13.430;2023-12-14T00:28:10;-19630.06;;;7.72;100.00
27294;BME280;14785;52.556;13.430;2023-12-14T00:30:36;-19630.97;;;7.75;100.00
27294;BME280;14785;52.556;13.430;2023-12-14T00:33:01;-19634.03;;;7.86;100.00
27294;BME280;14785;52.556;13.430;2023-12-14T00:35:27;-19636.75;;;7.95;100.00
27294;BME280;14785;52.556;13.430;2023-12-14T00:37:52;-19628.09;;;7.66;100.00
27294;BME280;14785;52.556;13.430;2023-12-14T00:40:18;-19630.38;;;7.73;100.00
27294;BME280;14785;52.556;13.430;2023-12-14T00:42:43;-19620.81;;;7.42;100.00
27294;BME280;14785;52.556;13.430;2023-12-14T00:45:09;-19627.94;;;7.65;100.00
27294;BME280;14785;52.556;13.430;2023-12-14T00:47:34;-19626.72;;;7.61;100.00
27294;BME280;14785;52.556;13.430;2023-12-14T00:50:00;-19620.19;;;7.40;100.00
27294;BME280;14785;52.556;13.430;2023-12-14T00:52:25;-19622.47;;;7.47;100.00
27294;BME280;14785;52.556;13.430;2023-12-14T00:54:50;-19624.28;;;7.53;100.00
27294;BME280;14785;52.556;13.430;2023-12-14T00:57:16;-19626.97;;;7.56;100.00
27294;BME280;14785;52.556;13.430;2023-12-14T00:59:41;-19617.63;;;7.31;100.00
27294;BME280;14785;52.556;13.430;2023-12-14T01:02:07;-19625.91;;;7.52;100.00
27294;BME280;14785;52.556;13.430;2023-12-14T01:04:32;-19621.97;;;7.39;100.00
27294;BME280;14785;52.556;13.430;2023-12-14T01:06:58;-19619.84;;;7.32;100.00
27294;BME280;14785;52.556;13.430;2023-12-14T01:09:23;-19624.09;;;7.46;100.00
27294;BME280;14785;52.556;13.430;2023-12-14T01:11:48;-19617.72;;;7.25;100.00
27294;BME280;14785;52.556;13.430;2023-12-14T01:14:14;-19604.31;;;6.81;100.00
27294;BME280;14785;52.556;13.430;2023-12-14T01:16:39;-19607.06;;;6.90;100.00
27294;BME280;14785;52.556;13.430;2023-12-14T01:19:05;-19612.22;;;7.07;100.00
27294;BME280;14785;52.556;13.430;2023-12-14T01:21:31;-19608.28;;;6.94;100.00
27294;BME280;14785;52.556;13.430;2023-12-14T01:23:57;-19610.72;;;7.02;100.00
27294;BME280;14785;52.556;13.430;2023-12-14T01:26:22;-19610.41;;;7.01;100.00
27294;BME280;14785;52.556;13.430;2023-12-14T01:28:47;-19612.22;;;7.07;100.00
27294;BME280;14785;52.556;13.430;2023-12-14T01:31:13;-19616.78;;;7.22;100.00
27294;BME280;14785;52.556;13.430;2023-12-14T01:33:38;-19615.44;;;7.18;100.00
27294;BME280;14785;52.556;13.430;2023-12-14T01:36:04;-19611.16;;;7.04;100.00
27294;BME280;14785;52.556;13.430;2023-12-14T01:38:29;-19622.56;;;7.41;100.00
27294;BME280;14785;52.556;13.430;2023-12-14T01:40:55;-19611.03;;;7.03;100.00
27294;BME280;14785;52.556;13.430;2023-12-14T01:43:21;-19610.72;;;7.02;100.00
27294;BME280;14785;52.556;13.430;2023-12-14T01:45:47;-19611.94;;;7.06;100.00
27294;BME280;14785;52.556;13.430;2023-12-14T01:48:12;-19609.19;;;6.97;100.00
27294;BME280;14785;52.556;13.430;2023-12-14T01:50:38;-19617.41;;;7.24;100.00
27294;BME280;14785;52.556;13.430;2023-12-14T01:53:03;-19612.53;;;7.08;100.00
27294;BME280;14785;52.556;13.430;2023-12-14T01:55:29;-19614.50;;;7.15;100.00
27294;BME280;14785;52.556;13.430;2023-12-14T01:57:54;-19617.09;;;7.23;100.00
27294;BME280;14785;52.556;13.430;2023-12-14T02:00:52;-19616.03;;;7.20;100.00
27294;BME280;14785;52.556;13.430;2023-12-14T02:03:19;-19609.03;;;6.97;100.00
27294;BME280;14785;52.556;13.430;2023-12-14T02:05:44;-19610.72;;;7.02;100.00
27294;BME280;14785;52.556;13.430;2023-12-14T02:08:10;-19601.28;;;6.71;100.00
27294;BME280;14785;52.556;13.430;2023-12-14T02:10:35;-19610.09;;;7.00;100.00
27294;BME280;14785;52.556;13.430;2023-12-14T02:13:02;-19604.63;;;6.82;100.00
27294;BME280;14785;52.556;13.430;2023-12-14T02:15:27;-19609.03;;;6.97;100.00
27294;BME280;14785;52.556;13.430;2023-12-14T02:17:52;-19605.84;;;6.86;100.00
27294;BME280;14785;52.556;13.430;2023-12-14T02:20:18;-19610.72;;;7.02;100.00
27294;BME280;14785;52.556;13.430;2023-12-14T02:22:56;-19610.72;;;7.02;100.00
27294;BME280;14785;52.556;13.430;2023-12-14T02:25:23;-19610.25;;;7.01;100.00
27294;BME280;14785;52.556;13.430;2023-12-14T02:27:49;-19613.91;;;7.13;100.00
27294;BME280;14785;52.556;13.430;2023-12-14T02:30:16;-19602.19;;;6.74;100.00
27294;BME280;14785;52.556;13.430;2023-12-14T02:32:41;-19612.38;;;7.08;100.00
27294;BME280;14785;52.556;13.430;2023-12-14T02:35:07;-19610.72;;;7.02;100.00
27294;BME280;14785;52.556;13.430;2023-12-14T02:37:33;-19616.34;;;7.21;100.00
27294;BME280;14785;52.556;13.430;2023-12-14T02:40:02;-19610.72;;;7.02;100.00
27294;BME280;14785;52.556;13.430;2023-12-14T02:42:28;-19599.47;;;6.65;100.00
27294;BME280;14785;52.556;13.430;2023-12-14T02:44:54;-19606.16;;;6.87;100.00
27294;BME280;14785;52.556;13.430;2023-12-14T02:47:19;-19607.81;;;6.93;100.00
27294;BME280;14785;52.556;13.430;2023-12-14T02:49:44;-19608.28;;;6.94;100.00
27294;BME280;14785;52.556;13.430;2023-12-14T02:52:10;-19611.16;;;7.04;100.00
27294;BME280;14785;52.556;13.430;2023-12-14T02:54:39;-19606.47;;;6.88;100.00
27294;BME280;14785;52.556;13.430;2023-12-14T02:57:05;-19612.84;;;7.09;100.00
27294;BME280;14785;52.556;13.430;2023-12-14T02:59:30;-19607.38;;;6.91;100.00
27294;BME280;14785;52.556;13.430;2023-12-14T03:01:56;-19615.88;;;7.19;100.00
27294;BME280;14785;52.556;13.430;2023-12-14T03:04:21;-19618.31;;;7.27;100.00
27294;BME280;14785;52.556;13.430;2023-12-14T03:06:46;-19605.53;;;6.85;100.00
27294;BME280;14785;52.556;13.430;2023-12-14T03:09:12;-19608.28;;;6.94;100.00
27294;BME280;14785;52.556;13.430;2023-12-14T03:11:37;-19610.41;;;7.01;100.00
27294;BME280;14785;52.556;13.430;2023-12-14T03:14:03;-19615.56;;;7.18;100.00
27294;BME280;14785;52.556;13.430;2023-12-14T03:16:28;-19612.84;;;7.09;100.00
27294;BME280;14785;52.556;13.430;2023-12-14T03:18:53;-19613.00;;;7.10;100.00
27294;BME280;14785;52.556;13.430;2023-12-14T03:21:19;-19611.63;;;7.05;100.00
27294;BME280;14785;52.556;13.430;2023-12-14T03:23:45;-19607.06;;;6.90;100.00
27294;BME280;14785;52.556;13.430;2023-12-14T03:26:11;-19606.75;;;6.89;100.00
27294;BME280;14785;52.556;13.430;2023-12-14T03:28:36;-19621.03;;;7.36;100.00
27294;BME280;14785;52.556;13.430;2023-12-14T03:31:02;-19608.13;;;6.94;100.00
27294;BME280;14785;52.556;13.430;2023-12-14T03:33:28;-19613.00;;;7.10;100.00
27294;BME280;14785;52.556;13.430;2023-12-14T03:35:53;-19612.75;;;7.15;100.00
27294;BME280;14785;52.556;13.430;2023-12-14T03:38:19;-19621.97;;;7.39;100.00
27294;BME280;14785;52.556;13.430;2023-12-14T03:40:44;-19609.19;;;6.97;100.00
27294;BME280;14785;52.556;13.430;2023-12-14T03:43:10;-19612.00;;;7.13;100.00
27294;BME280;14785;52.556;13.430;2023-12-14T03:45:35;-19613.81;;;7.19;100.00
27294;BME280;14785;52.556;13.430;2023-12-14T03:48:01;-19609.56;;;7.05;100.00
27294;BME280;14785;52.556;13.430;2023-12-14T03:50:27;-19606.66;;;6.95;100.00
27294;BME280;14785;52.556;13.430;2023-12-14T03:52:53;-19604.94;;;6.83;100.00
27294;BME280;14785;52.556;13.430;2023-12-14T03:55:18;-19610.63;;;7.08;100.00
27294;BME280;14785;52.556;13.430;2023-12-14T03:57:44;-19616.41;;;7.27;100.00
27294;BME280;14785;52.556;13.430;2023-12-14T04:00:13;-19609.72;;;7.05;100.00
27294;BME280;14785;52.556;13.430;2023-12-14T04:02:39;-19609.88;;;7.06;100.00
27294;BME280;14785;52.556;13.430;2023-12-14T04:05:06;-19611.53;;;7.11;100.00
27294;BME280;14785;52.556;13.430;2023-12-14T04:07:32;-19613.66;;;7.18;100.00
27294;BME280;14785;52.556;13.430;2023-12-14T04:09:58;-19612.44;;;7.14;100.00
27294;BME280;14785;52.556;13.430;2023-12-14T04:12:23;-19620.03;;;7.39;100.00
27294;BME280;14785;52.556;13.430;2023-12-14T04:14:48;-19613.97;;;7.19;100.00
27294;BME280;14785;52.556;13.430;2023-12-14T04:17:15;-19609.09;;;7.03;100.00
27294;BME280;14785;52.556;13.430;2023-12-14T04:19:41;-19615.63;;;7.25;100.00
27294;BME280;14785;52.556;13.430;2023-12-14T04:22:07;-19622.47;;;7.47;100.00
27294;BME280;14785;52.556;13.430;2023-12-14T04:24:32;-19292.97;;;7.38;100.00
27294;BME280;14785;52.556;13.430;2023-12-14T04:26:58;-19289.97;;;7.28;100.00
27294;BME280;14785;52.556;13.430;2023-12-14T04:29:23;-19279.22;;;6.92;100.00
27294;BME280;14785;52.556;13.430;2023-12-14T04:31:48;-19284.31;;;7.09;100.00
27294;BME280;14785;52.556;13.430;2023-12-14T04:34:14;-19289.97;;;7.28;100.00
27294;BME280;14785;52.556;13.430;2023-12-14T04:36:45;-19292.97;;;7.38;100.00
27294;BME280;14785;52.556;13.430;2023-12-14T04:39:10;-19288.03;;;7.22;100.00
27294;BME280;14785;52.556;13.430;2023-12-14T04:41:36;-19287.28;;;7.19;100.00
27294;BME280;14785;52.556;13.430;2023-12-14T04:44:02;-19284.75;;;7.11;100.00
27294;BME280;14785;52.556;13.430;2023-12-14T04:46:28;-19293.25;;;7.39;100.00
27294;BME280;14785;52.556;13.430;2023-12-14T04:48:53;-18964.41;;;7.32;100.00
27294;BME280;14785;52.556;13.430;2023-12-14T04:51:18;-19292.38;;;7.36;100.00
27294;BME280;14785;52.556;13.430;2023-12-14T04:53:44;-18964.25;;;7.32;100.00
27294;BME280;14785;52.556;13.430;2023-12-14T04:56:10;-18966.00;;;7.38;100.00
27294;BME280;14785;52.556;13.430;2023-12-14T04:58:35;-18963.81;;;7.30;100.00
27294;BME280;14785;52.556;13.430;2023-12-14T05:01:01;-18972.31;;;7.59;100.00
27294;BME280;14785;52.556;13.430;2023-12-14T05:03:26;-18963.50;;;7.29;100.00
27294;BME280;14785;52.556;13.430;2023-12-14T05:05:51;-18964.41;;;7.32;100.00
27294;BME280;14785;52.556;13.430;2023-12-14T05:08:17;-18958.09;;;7.11;100.00
27294;BME280;14785;52.556;13.430;2023-12-14T05:10:42;-18955.16;;;7.01;100.00
27294;BME280;14785;52.556;13.430;2023-12-14T05:13:08;-18959.69;;;7.16;100.00
27294;BME280;14785;52.556;13.430;2023-12-14T05:15:33;-18960.00;;;7.17;100.00
27294;BME280;14785;52.556;13.430;2023-12-14T05:17:59;-18964.69;;;7.33;100.00
27294;BME280;14785;52.556;13.430;2023-12-14T05:20:24;-18959.13;;;7.14;100.00
27294;BME280;14785;52.556;13.430;2023-12-14T05:22:50;-18958.09;;;7.11;100.00
27294;BME280;14785;52.556;13.430;2023-12-14T05:25:15;-19279.22;;;6.92;100.00
27294;BME280;14785;52.556;13.430;2023-12-14T05:27:40;-18961.75;;;7.23;100.00
27294;BME280;14785;52.556;13.430;2023-12-14T05:30:06;-18956.91;;;7.07;100.00
27294;BME280;14785;52.556;13.430;2023-12-14T05:32:32;-18971.44;;;7.56;100.00
27294;BME280;14785;52.556;13.430;2023-12-14T05:34:57;-18964.97;;;7.34;100.00
27294;BME280;14785;52.556;13.430;2023-12-14T05:37:24;-19291.03;;;7.32;100.00
27294;BME280;14785;52.556;13.430;2023-12-14T05:39:50;-18969.09;;;7.48;100.00
27294;BME280;14785;52.556;13.430;2023-12-14T05:42:16;-18967.19;;;7.42;100.00
27294;BME280;14785;52.556;13.430;2023-12-14T05:44:42;-18968.50;;;7.46;100.00
27294;BME280;14785;52.556;13.430;2023-12-14T05:47:09;-19297.16;;;7.52;100.00
27294;BME280;14785;52.556;13.430;2023-12-14T05:49:35;-18974.38;;;7.66;100.00
27294;BME280;14785;52.556;13.430;2023-12-14T05:52:00;-19296.53;;;7.50;100.00
27294;BME280;14785;52.556;13.430;2023-12-14T05:54:26;-18969.38;;;7.49;100.00
27294;BME280;14785;52.556;13.430;2023-12-14T05:56:51;-18972.91;;;7.61;100.00
27294;BME280;14785;52.556;13.430;2023-12-14T05:59:16;-18971.13;;;7.55;100.00
27294;BME280;14785;52.556;13.430;2023-12-14T06:01:42;-18970.56;;;7.53;100.00
27294;BME280;14785;52.556;13.430;2023-12-14T06:04:08;-18971.44;;;7.56;100.00
27294;BME280;14785;52.556;13.430;2023-12-14T06:06:38;-18970.56;;;7.53;100.00
27294;BME280;14785;52.556;13.430;2023-12-14T06:09:03;-18968.78;;;7.47;100.00
27294;BME280;14785;52.556;13.430;2023-12-14T06:11:30;-18970.69;;;7.54;100.00
27294;BME280;14785;52.556;13.430;2023-12-14T06:13:55;-18647.09;;;7.65;100.00
27294;BME280;14785;52.556;13.430;2023-12-14T06:16:20;-18644.22;;;7.55;100.00
27294;BME280;14785;52.556;13.430;2023-12-14T06:18:46;-18642.63;;;7.50;100.00
27294;BME280;14785;52.556;13.430;2023-12-14T06:21:12;-18640.75;;;7.43;100.00
27294;BME280;14785;52.556;13.430;2023-12-14T06:23:38;-18644.50;;;7.56;100.00
27294;BME280;14785;52.556;13.430;2023-12-14T06:26:04;-18640.75;;;7.43;100.00
27294;BME280;14785;52.556;13.430;2023-12-14T06:28:30;-18645.34;;;7.59;100.00
27294;BME280;14785;52.556;13.430;2023-12-14T06:30:56;-18639.31;;;7.38;100.00
27294;BME280;14785;52.556;13.430;2023-12-14T06:33:21;-18639.75;;;7.40;100.00
27294;BME280;14785;52.556;13.430;2023-12-14T06:35:47;-18316.69;;;7.53;100.00
27294;BME280;14785;52.556;13.430;2023-12-14T06:38:13;-18316.41;;;7.52;100.00
27294;BME280;14785;52.556;13.430;2023-12-14T06:40:38;-18317.38;;;7.56;100.00
27294;BME280;14785;52.556;13.430;2023-12-14T06:43:04;-18641.47;;;7.46;100.00
27294;BME280;14785;52.556;13.430;2023-12-14T06:45:30;-18315.41;;;7.49;100.00
27294;BME280;14785;52.556;13.430;2023-12-14T06:47:56;-18321.75;;;7.71;100.00
27294;BME280;14785;52.556;13.430;2023-12-14T06:50:21;-17994.97;;;7.72;100.00
27294;BME280;14785;52.556;13.430;2023-12-14T06:52:46;-18319.06;;;7.62;100.00
27294;BME280;14785;52.556;13.430;2023-12-14T06:55:12;-18320.34;;;7.66;100.00
27294;BME280;14785;52.556;13.430;2023-12-14T06:57:42;-17990.78;;;7.57;100.00
27294;BME280;14785;52.556;13.430;2023-12-14T07:00:08;-17994.69;;;7.71;100.00
27294;BME280;14785;52.556;13.430;2023-12-14T07:02:33;-17994.25;;;7.70;100.00
27294;BME280;14785;52.556;13.430;2023-12-14T07:04:59;-17990.53;;;7.56;100.00
27294;BME280;14785;52.556;13.430;2023-12-14T07:07:24;-17991.06;;;7.58;100.00
27294;BME280;14785;52.556;13.430;2023-12-14T07:09:50;-17653.94;;;7.21;100.00
27294;BME280;14785;52.556;13.430;2023-12-14T07:12:16;-17662.66;;;7.53;100.00
27294;BME280;14785;52.556;13.430;2023-12-14T07:14:43;-17664.44;;;7.60;100.00
27294;BME280;14785;52.556;13.430;2023-12-14T07:17:08;-17666.47;;;7.67;100.00
27294;BME280;14785;52.556;13.430;2023-12-14T07:19:34;-17657.75;;;7.35;100.00
27294;BME280;14785;52.556;13.430;2023-12-14T07:22:00;-17990.94;;;7.58;100.00
27294;BME280;14785;52.556;13.430;2023-12-14T07:24:26;-17667.84;;;7.72;100.00
27294;BME280;14785;52.556;13.430;2023-12-14T07:26:51;-17664.28;;;7.59;100.00
27294;BME280;14785;52.556;13.430;2023-12-14T07:29:16;-17658.16;;;7.37;100.00
27294;BME280;14785;52.556;13.430;2023-12-14T07:31:42;-17659.94;;;7.43;100.00
27294;BME280;14785;52.556;13.430;2023-12-14T07:34:07;-17659.81;;;7.43;100.00
27294;BME280;14785;52.556;13.430;2023-12-14T07:36:33;-17648.91;;;7.03;100.00
27294;BME280;14785;52.556;13.430;2023-12-14T07:38:58;-17655.31;;;7.26;100.00
27294;BME280;14785;52.556;13.430;2023-12-14T07:41:25;-17658.44;;;7.38;100.00
27294;BME280;14785;52.556;13.430;2023-12-14T07:43:55;-17333.47;;;7.45;100.00
27294;BME280;14785;52.556;13.430;2023-12-14T07:46:20;-17341.47;;;7.75;100.00
27294;BME280;14785;52.556;13.430;2023-12-14T07:48:46;-17346.56;;;7.95;100.00
27294;BME280;14785;52.556;13.430;2023-12-14T07:51:12;-17673.28;;;7.93;100.00
27294;BME280;14785;52.556;13.430;2023-12-14T07:53:37;-17350.56;;;8.10;100.00
27294;BME280;14785;52.556;13.430;2023-12-14T07:56:03;-17346.81;;;7.96;100.00
27294;BME280;14785;52.556;13.430;2023-12-14T07:58:29;-17345.09;;;7.89;100.00
27294;BME280;14785;52.556;13.430;2023-12-14T08:00:54;-17341.75;;;7.76;100.00
27294;BME280;14785;52.556;13.430;2023-12-14T08:03:19;-17012.19;;;7.67;100.00
27294;BME280;14785;52.556;13.430;2023-12-14T08:05:45;-17017.03;;;7.86;100.00
27294;BME280;14785;52.556;13.430;2023-12-14T08:08:10;-17017.16;;;7.87;100.00
27294;BME280;14785;52.556;13.430;2023-12-14T08:10:36;-17015.19;;;7.79;100.00
27294;BME280;14785;52.556;13.430;2023-12-14T08:13:02;-17012.19;;;7.67;100.00
27294;BME280;14785;52.556;13.430;2023-12-14T08:15:28;-17013.50;;;7.72;100.00
27294;BME280;14785;52.556;13.430;2023-12-14T08:17:53;-16680.38;;;7.49;100.00
27294;BME280;14785;52.556;13.430;2023-12-14T08:20:19;-16680.63;;;7.50;100.00
27294;BME280;14785;52.556;13.430;2023-12-14T08:22:45;-16358.25;;;7.69;100.00
27294;BME280;14785;52.556;13.430;2023-12-14T08:25:12;-16354.50;;;7.54;100.00
27294;BME280;14785;52.556;13.430;2023-12-14T08:27:39;-16684.72;;;7.66;100.00
27294;BME280;14785;52.556;13.430;2023-12-14T08:30:04;-16363.78;;;7.92;100.00
27294;BME280;14785;52.556;13.430;2023-12-14T08:32:30;-16359.91;;;7.76;100.00
27294;BME280;14785;52.556;13.430;2023-12-14T08:34:55;-16360.28;;;7.77;100.00
27294;BME280;14785;52.556;13.430;2023-12-14T08:37:21;-16360.78;;;7.79;100.00
27294;BME280;14785;52.556;13.430;2023-12-14T08:39:46;-16358.00;;;7.68;100.00
27294;BME280;14785;52.556;13.430;2023-12-14T08:42:12;-16362.78;;;7.88;100.00
27294;BME280;14785;52.556;13.430;2023-12-14T08:44:40;-16365.78;;;8.00;100.00
27294;BME280;14785;52.556;13.430;2023-12-14T08:47:06;-16358.16;;;7.69;100.00
27294;BME280;14785;52.556;13.430;2023-12-14T08:49:34;-16358.00;;;7.68;100.00
27294;BME280;14785;52.556;13.430;2023-12-14T08:52:00;-16029.66;;;7.64;100.00
27294;BME280;14785;52.556;13.430;2023-12-14T08:54:25;-16026.31;;;7.50;100.00
27294;BME280;14785;52.556;13.430;2023-12-14T08:56:51;-16025.34;;;7.46;100.00
27294;BME280;14785;52.556;13.430;2023-12-14T08:59:17;-16026.81;;;7.52;100.00
27294;BME280;14785;52.556;13.430;2023-12-14T09:01:45;-15706.94;;;7.83;100.00
27294;BME280;14785;52.556;13.430;2023-12-14T09:04:10;-15707.53;;;7.86;100.00
27294;BME280;14785;52.556;13.430;2023-12-14T09:06:35;-15383.28;;;7.99;100.00
27294;BME280;14785;52.556;13.430;2023-12-14T09:09:01;-15706.94;;;7.83;100.00
27294;BME280;14785;52.556;13.430;2023-12-14T09:11:27;-15712.81;;;8.08;100.00
27294;BME280;14785;52.556;13.430;2023-12-14T09:13:53;-15708.97;;;7.92;100.00
27294;BME280;14785;52.556;13.430;2023-12-14T09:16:18;-15708.84;;;7.91;100.00
27294;BME280;14785;52.556;13.430;2023-12-14T09:18:44;-16032.22;;;7.74;100.00
27294;BME280;14785;52.556;13.430;2023-12-14T09:21:09;-15377.66;;;7.75;100.00
27294;BME280;14785;52.556;13.430;2023-12-14T09:23:35;-15702.97;;;7.66;100.00
27294;BME280;14785;52.556;13.430;2023-12-14T09:26:01;-15379.19;;;7.81;100.00
27294;BME280;14785;52.556;13.430;2023-12-14T09:28:26;-15379.06;;;7.81;100.00
27294;BME280;14785;52.556;13.430;2023-12-14T09:30:52;-15380.47;;;7.87;100.00
27294;BME280;14785;52.556;13.430;2023-12-14T09:33:17;-15378.00;;;7.76;100.00
27294;BME280;14785;52.556;13.430;2023-12-14T09:35:43;-15378.25;;;7.77;100.00
27294;BME280;14785;52.556;13.430;2023-12-14T09:38:09;-15377.28;;;7.73;100.00
27294;BME280;14785;52.556;13.430;2023-12-14T09:40:34;-15370.25;;;7.43;100.00
27294;BME280;14785;52.556;13.430;2023-12-14T09:43:00;-15380.22;;;7.86;100.00
27294;BME280;14785;52.556;13.430;2023-12-14T09:45:29;-15050.13;;;7.74;100.00
27294;BME280;14785;52.556;13.430;2023-12-14T09:48:00;-15375.88;;;7.67;100.00
27294;BME280;14785;52.556;13.430;2023-12-14T09:50:26;-15050.81;;;7.77;100.00
27294;BME280;14785;52.556;13.430;2023-12-14T09:52:51;-14726.97;;;7.94;100.00
27294;BME280;14785;52.556;13.430;2023-12-14T09:55:17;-15050.59;;;7.76;100.00
27294;BME280;14785;52.556;13.430;2023-12-14T09:57:42;-15056.34;;;8.02;100.00
27294;BME280;14785;52.556;13.430;2023-12-14T10:00:08;-15375.41;;;7.65;100.00
27294;BME280;14785;52.556;13.430;2023-12-14T10:02:40;-15047.16;;;7.61;100.00
27294;BME280;14785;52.556;13.430;2023-12-14T10:05:09;-15053.13;;;7.88;100.00
27294;BME280;14785;52.556;13.430;2023-12-14T10:07:41;-14726.53;;;7.92;100.00
27294;BME280;14785;52.556;13.430;2023-12-14T10:10:12;-14402.03;;;8.06;100.00
27294;BME280;14785;52.556;13.430;2023-12-14T10:12:53;-14726.97;;;7.94;100.00
27294;BME280;14785;52.556;13.430;2023-12-14T10:15:19;-15058.28;;;8.10;100.00
27294;BME280;14785;52.556;13.430;2023-12-14T10:17:45;-14730.34;;;8.09;100.00
27294;BME280;14785;52.556;13.430;2023-12-14T10:20:21;-14726.84;;;7.93;100.00
27294;BME280;14785;52.556;13.430;2023-12-14T10:22:48;-14403.34;;;8.12;100.00
27294;BME280;14785;52.556;13.430;2023-12-14T10:25:14;-14405.00;;;8.19;100.00
27294;BME280;14785;52.556;13.430;2023-12-14T10:27:39;-14394.59;;;7.71;100.00
27294;BME280;14785;52.556;13.430;2023-12-14T10:30:08;-14728.09;;;7.99;100.00
27294;BME280;14785;52.556;13.430;2023-12-14T10:32:37;-14401.38;;;8.03;100.00
27294;BME280;14785;52.556;13.430;2023-12-14T10:35:03;-14405.88;;;8.23;100.00
27294;BME280;14785;52.556;13.430;2023-12-14T10:37:29;-14076.72;;;8.17;100.00
27294;BME280;14785;52.556;13.430;2023-12-14T10:39:59;-14073.00;;;7.99;100.00
27294;BME280;14785;52.556;13.430;2023-12-14T10:42:26;-14071.59;;;7.93;100.00
27294;BME280;14785;52.556;13.430;2023-12-14T10:44:53;-13741.88;;;7.82;100.00
27294;BME280;14785;52.556;13.430;2023-12-14T10:47:19;-13411.84;;;7.70;100.00
27294;BME280;14785;52.556;13.430;2023-12-14T10:49:50;-13417.84;;;8.00;100.00
27294;BME280;14785;52.556;13.430;2023-12-14T10:52:16;-13742.94;;;7.88;100.00
27294;BME280;14785;52.556;13.430;2023-12-14T10:54:44;-13085.47;;;7.76;100.00
27294;BME280;14785;52.556;13.430;2023-12-14T10:57:09;-13088.81;;;7.94;100.00
27294;BME280;14785;52.556;13.430;2023-12-14T10:59:35;-13090.00;;;8.00;100.00
27294;BME280;14785;52.556;13.430;2023-12-14T11:02:07;-12761.97;;;7.98;100.00
27294;BME280;14785;52.556;13.430;2023-12-14T11:04:55;-13084.16;;;7.70;100.00
27294;BME280;14785;52.556;13.430;2023-12-14T11:07:46;-12750.88;;;7.40;100.00
27294;BME280;14785;52.556;13.430;2023-12-14T11:10:13;-12752.03;;;7.46;100.00
27294;BME280;14785;52.556;13.430;2023-12-14T11:12:49;-13084.56;;;7.72;100.00
27294;BME280;14785;52.556;13.430;2023-12-14T11:15:17;-12759.75;;;7.87;100.00
27294;BME280;14785;52.556;13.430;2023-12-14T11:17:43;-12764.94;;;8.14;100.00
27294;BME280;14785;52.556;13.430;2023-12-14T11:25:56;-11783.19;;;8.25;100.00
27294;BME280;14785;52.556;13.430;2023-12-14T11:28:22;-11127.63;;;8.28;100.00
27294;BME280;14785;52.556;13.430;2023-12-14T11:30:48;-11453.53;;;8.15;100.00
27294;BME280;14785;52.556;13.430;2023-12-14T11:33:14;-11128.94;;;8.36;100.00
27294;BME280;14785;52.556;13.430;2023-12-14T11:35:40;-11129.78;;;8.41;100.00
27294;BME280;14785;52.556;13.430;2023-12-14T11:38:06;-10803.94;;;8.55;100.00
27294;BME280;14785;52.556;13.430;2023-12-14T11:40:45;-9817.31;;;8.44;100.00
27294;BME280;14785;52.556;13.430;2023-12-14T11:43:10;-10475.50;;;8.54;100.00
27294;BME280;14785;52.556;13.430;2023-12-14T11:45:36;-10142.97;;;8.26;100.00
27294;BME280;14785;52.556;13.430;2023-12-14T11:48:03;-9815.00;;;8.28;100.00
27294;BME280;14785;52.556;13.430;2023-12-14T11:50:33;-9813.31;;;8.16;100.00
27294;BME280;14785;52.556;13.430;2023-12-14T11:53:02;-9816.44;;;8.38;100.00
27294;BME280;14785;52.556;13.430;2023-12-14T11:55:32;-8828.19;;;8.12;100.00
27294;BME280;14785;52.556;13.430;2023-12-14T11:57:58;-9160.28;;;8.41;100.00
27294;BME280;14785;52.556;13.430;2023-12-14T12:00:25;-8833.00;;;8.50;100.00
27294;BME280;14785;52.556;13.430;2023-12-14T12:02:51;-8510.00;;;8.94;100.00
27294;BME280;14785;52.556;13.430;2023-12-14T12:05:16;-6865.38;;;8.87;100.00
27294;BME280;14785;52.556;13.430;2023-12-14T12:07:45;-7851.28;;;8.83;100.00
27294;BME280;14785;52.556;13.430;2023-12-14T12:10:11;-7848.13;;;8.55;100.00
27294;BME280;14785;52.556;13.430;2023-12-14T12:12:36;-6863.91;;;8.72;100.00
27294;BME280;14785;52.556;13.430;2023-12-14T12:15:02;-7192.00;;;8.65;100.00
27294;BME280;14785;52.556;13.430;2023-12-14T12:17:27;-6863.63;;;8.69;100.00
27294;BME280;14785;52.556;13.430;2023-12-14T12:19:53;-6864.41;;;8.77;100.00
27294;BME280;14785;52.556;13.430;2023-12-14T12:22:18;-6205.56;;;8.63;100.00
27294;BME280;14785;52.556;13.430;2023-12-14T12:24:44;-6863.91;;;8.72;100.00
27294;BME280;14785;52.556;13.430;2023-12-14T12:27:09;-5876.69;;;8.62;100.00
27294;BME280;14785;52.556;13.430;2023-12-14T12:29:34;-6201.28;;;8.13;100.00
27294;BME280;14785;52.556;13.430;2023-12-14T12:32:00;-6862.75;;;8.60;100.00
27294;BME280;14785;52.556;13.430;2023-12-14T12:34:25;-5874.34;;;8.33;100.00
27294;BME280;14785;52.556;13.430;2023-12-14T12:36:51;-5876.06;;;8.54;100.00
27294;BME280;14785;52.556;13.430;2023-12-14T12:39:16;-5545.84;;;8.35;100.00
27294;BME280;14785;52.556;13.430;2023-12-14T12:41:43;-5875.16;;;8.43;100.00